sensor_id;sensor_type;location;lat;lon;timestamp;temperature;humidity
18252;DHT22;26917;52.328;20.878;2022-11-20T00:02:02;-3.20;99.90
18252;DHT22;26917;52.328;20.878;2022-11-20T00:04:31;-2.60;99.90
18252;DHT22;26917;52.328;20.878;2022-11-20T00:06:59;-2.90;99.90
18252;DHT22;26917;52.328;20.878;2022-11-20T00:09:27;-2.90;99.90
18252;DHT22;26917;52.328;20.878;2022-11-20T00:11:56;-2.80;99.90
18252;DHT22;26917;52.328;20.878;2022-11-20T00:14:28;-3.20;99.90
18252;DHT22;26917;52.328;20.878;2022-11-20T00:16:57;-3.40;99.90
18252;DHT22;26917;52.328;20.878;2022-11-20T00:19:25;-3.30;99.90
18252;DHT22;26917;52.328;20.878;2022-11-20T00:21:54;-3.50;99.90
18252;DHT22;26917;52.328;20.878;2022-11-20T00:24:22;-3.50;99.90
18252;DHT22;26917;52.328;20.878;2022-11-20T00:26:50;-3.60;99.90
18252;DHT22;26917;52.328;20.878;2022-11-20T00:29:19;-3.30;99.90
18252;DHT22;26917;52.328;20.878;2022-11-20T00:31:53;-3.50;99.90
18252;DHT22;26917;52.328;20.878;2022-11-20T00:34:22;-3.50;99.90
18252;DHT22;26917;52.328;20.878;2022-11-20T00:36:51;-3.20;99.90
18252;DHT22;26917;52.328;20.878;2022-11-20T00:39:19;-3.50;99.90
18252;DHT22;26917;52.328;20.878;2022-11-20T00:41:48;-2.90;99.90
18252;DHT22;26917;52.328;20.878;2022-11-20T00:44:17;-3.30;99.90
18252;DHT22;26917;52.328;20.878;2022-11-20T00:46:45;-3.40;99.90
18252;DHT22;26917;52.328;20.878;2022-11-20T00:49:15;-3.30;99.90
18252;DHT22;26917;52.328;20.878;2022-11-20T00:51:44;-3.10;99.90
18252;DHT22;26917;52.328;20.878;2022-11-20T00:54:13;-3.30;99.90
18252;DHT22;26917;52.328;20.878;2022-11-20T00:56:41;-3.30;99.90
18252;DHT22;26917;52.328;20.878;2022-11-20T00:59:11;-3.00;99.90
18252;DHT22;26917;52.328;20.878;2022-11-20T01:01:39;-3.60;99.90
18252;DHT22;26917;52.328;20.878;2022-11-20T01:04:08;-3.30;99.90
18252;DHT22;26917;52.328;20.878;2022-11-20T01:06:39;-3.30;99.90
18252;DHT22;26917;52.328;20.878;2022-11-20T01:09:11;-3.30;99.90
18252;DHT22;26917;52.328;20.878;2022-11-20T01:11:42;-3.30;99.90
18252;DHT22;26917;52.328;20.878;2022-11-20T01:14:16;-3.20;99.90
18252;DHT22;26917;52.328;20.878;2022-11-20T01:16:46;-3.30;99.90
18252;DHT22;26917;52.328;20.878;2022-11-20T01:19:20;-3.30;99.90
18252;DHT22;26917;52.328;20.878;2022-11-20T01:21:52;-2.20;99.90
18252;DHT22;26917;52.328;20.878;2022-11-20T01:24:21;-3.30;99.90
18252;DHT22;26917;52.328;20.878;2022-11-20T01:26:51;-2.80;99.90
18252;DHT22;26917;52.328;20.878;2022-11-20T01:29:21;-3.10;99.90
18252;DHT22;26917;52.328;20.878;2022-11-20T01:31:51;-3.30;99.90
18252;DHT22;26917;52.328;20.878;2022-11-20T01:34:21;-3.10;99.90
18252;DHT22;26917;52.328;20.878;2022-11-20T01:36:52;-3.30;99.90
18252;DHT22;26917;52.328;20.878;2022-11-20T01:39:22;-3.10;99.90
18252;DHT22;26917;52.328;20.878;2022-11-20T01:41:52;-2.90;99.90
18252;DHT22;26917;52.328;20.878;2022-11-20T01:44:49;-2.60;99.90
18252;DHT22;26917;52.328;20.878;2022-11-20T01:47:23;-3.20;99.90
18252;DHT22;26917;52.328;20.878;2022-11-20T01:49:56;-2.70;99.90
18252;DHT22;26917;52.328;20.878;2022-11-20T01:52:29;-3.20;99.90
18252;DHT22;26917;52.328;20.878;2022-11-20T01:55:01;-2.90;99.90
18252;DHT22;26917;52.328;20.878;2022-11-20T01:57:32;-3.20;99.90
18252;DHT22;26917;52.328;20.878;2022-11-20T02:00:05;-3.30;99.90
18252;DHT22;26917;52.328;20.878;2022-11-20T02:02:39;-3.20;99.90
18252;DHT22;26917;52.328;20.878;2022-11-20T02:05:14;-3.20;99.90
18252;DHT22;26917;52.328;20.878;2022-11-20T02:07:46;-3.10;99.90
18252;DHT22;26917;52.328;20.878;2022-11-20T02:10:16;-3.20;99.90
18252;DHT22;26917;52.328;20.878;2022-11-20T02:12:44;-3.20;99.90
18252;DHT22;26917;52.328;20.878;2022-11-20T02:15:32;-2.80;99.90
18252;DHT22;26917;52.328;20.878;2022-11-20T02:18:01;-3.20;99.90
18252;DHT22;26917;52.328;20.878;2022-11-20T02:20:29;-3.10;99.90
18252;DHT22;26917;52.328;20.878;2022-11-20T02:23:03;-3.00;99.90
18252;DHT22;26917;52.328;20.878;2022-11-20T02:25:35;-3.20;99.90
18252;DHT22;26917;52.328;20.878;2022-11-20T02:28:05;-2.80;99.90
18252;DHT22;26917;52.328;20.878;2022-11-20T02:30:42;-3.00;99.90
18252;DHT22;26917;52.328;20.878;2022-11-20T02:33:11;-3.10;99.90
18252;DHT22;26917;52.328;20.878;2022-11-20T02:35:45;-3.00;99.90
18252;DHT22;26917;52.328;20.878;2022-11-20T02:38:15;-3.10;99.90
18252;DHT22;26917;52.328;20.878;2022-11-20T02:40:45;-3.10;99.90
18252;DHT22;26917;52.328;20.878;2022-11-20T02:43:20;-2.80;99.90
18252;DHT22;26917;52.328;20.878;2022-11-20T02:45:48;-3.10;99.90
18252;DHT22;26917;52.328;20.878;2022-11-20T02:48:17;-3.10;99.90
18252;DHT22;26917;52.328;20.878;2022-11-20T02:50:45;-3.00;99.90
18252;DHT22;26917;52.328;20.878;2022-11-20T02:53:14;-2.70;99.90
18252;DHT22;26917;52.328;20.878;2022-11-20T02:55:42;-2.70;99.90
18252;DHT22;26917;52.328;20.878;2022-11-20T02:58:12;-3.10;99.90
18252;DHT22;26917;52.328;20.878;2022-11-20T03:00:40;-3.10;99.90
18252;DHT22;26917;52.328;20.878;2022-11-20T03:03:09;-2.70;99.90
18252;DHT22;26917;52.328;20.878;2022-11-20T03:05:37;-2.50;99.90
18252;DHT22;26917;52.328;20.878;2022-11-20T03:08:05;-3.10;99.90
18252;DHT22;26917;52.328;20.878;2022-11-20T03:10:34;-2.70;99.90
18252;DHT22;26917;52.328;20.878;2022-11-20T03:13:02;-3.00;99.90
18252;DHT22;26917;52.328;20.878;2022-11-20T03:15:32;-2.90;99.90
18252;DHT22;26917;52.328;20.878;2022-11-20T03:18:00;-2.80;99.90
18252;DHT22;26917;52.328;20.878;2022-11-20T03:20:29;-2.90;99.90
18252;DHT22;26917;52.328;20.878;2022-11-20T03:22:57;-2.60;99.90
18252;DHT22;26917;52.328;20.878;2022-11-20T03:25:26;-3.10;99.90
18252;DHT22;26917;52.328;20.878;2022-11-20T03:27:54;-3.10;99.90
18252;DHT22;26917;52.328;20.878;2022-11-20T03:30:23;-3.10;99.90
18252;DHT22;26917;52.328;20.878;2022-11-20T03:32:57;-3.10;99.90
18252;DHT22;26917;52.328;20.878;2022-11-20T03:35:26;-2.90;99.90
18252;DHT22;26917;52.328;20.878;2022-11-20T03:37:58;-3.10;99.90
18252;DHT22;26917;52.328;20.878;2022-11-20T03:40:26;-3.00;99.90
18252;DHT22;26917;52.328;20.878;2022-11-20T03:42:55;-2.90;99.90
18252;DHT22;26917;52.328;20.878;2022-11-20T03:45:23;-3.00;99.90
18252;DHT22;26917;52.328;20.878;2022-11-20T03:47:53;-3.10;99.90
18252;DHT22;26917;52.328;20.878;2022-11-20T03:50:23;-3.40;99.90
18252;DHT22;26917;52.328;20.878;2022-11-20T03:52:51;-3.10;99.90
18252;DHT22;26917;52.328;20.878;2022-11-20T03:55:20;-3.30;99.90
18252;DHT22;26917;52.328;20.878;2022-11-20T03:57:48;-3.40;99.90
18252;DHT22;26917;52.328;20.878;2022-11-20T04:00:17;-3.30;99.90
18252;DHT22;26917;52.328;20.878;2022-11-20T04:02:45;-3.30;99.90
18252;DHT22;26917;52.328;20.878;2022-11-20T04:05:14;-3.40;99.90
18252;DHT22;26917;52.328;20.878;2022-11-20T04:07:43;-2.90;99.90
18252;DHT22;26917;52.328;20.878;2022-11-20T04:10:12;-3.50;99.90
18252;DHT22;26917;52.328;20.878;2022-11-20T04:12:40;-2.90;99.90
18252;DHT22;26917;52.328;20.878;2022-11-20T04:15:09;-3.50;99.90
18252;DHT22;26917;52.328;20.878;2022-11-20T04:17:38;-3.50;99.90
18252;DHT22;26917;52.328;20.878;2022-11-20T04:20:07;-3.20;99.90
18252;DHT22;26917;52.328;20.878;2022-11-20T04:22:36;-3.50;99.90
18252;DHT22;26917;52.328;20.878;2022-11-20T04:25:06;-3.50;99.90
18252;DHT22;26917;52.328;20.878;2022-11-20T04:27:35;-3.50;99.90
18252;DHT22;26917;52.328;20.878;2022-11-20T04:30:04;-3.50;99.90
18252;DHT22;26917;52.328;20.878;2022-11-20T04:32:34;-3.50;99.90
18252;DHT22;26917;52.328;20.878;2022-11-20T04:35:02;-3.50;99.90
18252;DHT22;26917;52.328;20.878;2022-11-20T04:37:31;-3.60;99.90
18252;DHT22;26917;52.328;20.878;2022-11-20T04:39:59;-3.60;99.90
18252;DHT22;26917;52.328;20.878;2022-11-20T04:42:29;-3.50;99.90
18252;DHT22;26917;52.328;20.878;2022-11-20T04:44:57;-3.60;99.90
18252;DHT22;26917;52.328;20.878;2022-11-20T04:47:26;-3.70;99.90
18252;DHT22;26917;52.328;20.878;2022-11-20T04:49:54;-3.70;99.90
18252;DHT22;26917;52.328;20.878;2022-11-20T04:52:23;-3.70;99.90
18252;DHT22;26917;52.328;20.878;2022-11-20T04:54:51;-3.80;99.90
18252;DHT22;26917;52.328;20.878;2022-11-20T04:57:20;-3.80;99.90
18252;DHT22;26917;52.328;20.878;2022-11-20T04:59:50;-3.70;99.90
18252;DHT22;26917;52.328;20.878;2022-11-20T05:02:19;-4.00;99.90
18252;DHT22;26917;52.328;20.878;2022-11-20T05:04:47;-3.70;99.90
18252;DHT22;26917;52.328;20.878;2022-11-20T05:07:16;-4.10;99.90
18252;DHT22;26917;52.328;20.878;2022-11-20T05:09:44;-4.20;99.90
18252;DHT22;26917;52.328;20.878;2022-11-20T05:12:13;-4.20;99.90
18252;DHT22;26917;52.328;20.878;2022-11-20T05:14:41;-4.20;99.90
18252;DHT22;26917;52.328;20.878;2022-11-20T05:17:11;-4.10;99.90
18252;DHT22;26917;52.328;20.878;2022-11-20T05:19:40;-4.10;99.90
18252;DHT22;26917;52.328;20.878;2022-11-20T05:22:09;-4.40;99.90
18252;DHT22;26917;52.328;20.878;2022-11-20T05:24:37;-3.90;99.90
18252;DHT22;26917;52.328;20.878;2022-11-20T05:27:05;-4.60;99.90
18252;DHT22;26917;52.328;20.878;2022-11-20T05:29:37;-4.50;99.90
18252;DHT22;26917;52.328;20.878;2022-11-20T05:32:06;-4.50;99.90
18252;DHT22;26917;52.328;20.878;2022-11-20T05:34:38;-4.50;99.90
18252;DHT22;26917;52.328;20.878;2022-11-20T05:37:06;-4.60;99.90
18252;DHT22;26917;52.328;20.878;2022-11-20T05:39:34;-4.60;99.90
18252;DHT22;26917;52.328;20.878;2022-11-20T05:42:03;-4.60;99.90
18252;DHT22;26917;52.328;20.878;2022-11-20T05:44:51;-4.60;99.90
18252;DHT22;26917;52.328;20.878;2022-11-20T05:47:19;-4.20;99.90
18252;DHT22;26917;52.328;20.878;2022-11-20T05:49:49;-4.60;99.90
18252;DHT22;26917;52.328;20.878;2022-11-20T05:52:17;-4.60;99.90
18252;DHT22;26917;52.328;20.878;2022-11-20T05:54:46;-4.60;99.90
18252;DHT22;26917;52.328;20.878;2022-11-20T05:57:14;-4.70;99.90
18252;DHT22;26917;52.328;20.878;2022-11-20T05:59:43;-4.50;99.90
18252;DHT22;26917;52.328;20.878;2022-11-20T06:02:11;-4.70;99.90
18252;DHT22;26917;52.328;20.878;2022-11-20T06:04:39;-4.70;99.90
18252;DHT22;26917;52.328;20.878;2022-11-20T06:07:09;-4.70;99.90
18252;DHT22;26917;52.328;20.878;2022-11-20T06:09:38;-4.60;99.90
18252;DHT22;26917;52.328;20.878;2022-11-20T06:12:06;-4.40;99.90
18252;DHT22;26917;52.328;20.878;2022-11-20T06:14:35;-4.60;99.90
18252;DHT22;26917;52.328;20.878;2022-11-20T06:17:03;-4.60;99.90
18252;DHT22;26917;52.328;20.878;2022-11-20T06:19:32;-4.70;99.90
18252;DHT22;26917;52.328;20.878;2022-11-20T06:22:00;-4.60;99.90
18252;DHT22;26917;52.328;20.878;2022-11-20T06:24:30;-4.10;99.90
18252;DHT22;26917;52.328;20.878;2022-11-20T06:26:58;-4.60;99.90
18252;DHT22;26917;52.328;20.878;2022-11-20T06:29:26;-4.70;99.90
18252;DHT22;26917;52.328;20.878;2022-11-20T06:32:00;-4.60;99.90
18252;DHT22;26917;52.328;20.878;2022-11-20T06:34:28;-4.70;99.90
18252;DHT22;26917;52.328;20.878;2022-11-20T06:36:56;-4.70;99.90
18252;DHT22;26917;52.328;20.878;2022-11-20T06:39:25;-3.50;99.90
18252;DHT22;26917;52.328;20.878;2022-11-20T06:41:55;-4.50;99.90
18252;DHT22;26917;52.328;20.878;2022-11-20T06:44:25;-3.90;99.90
18252;DHT22;26917;52.328;20.878;2022-11-20T06:46:53;-4.70;99.90
18252;DHT22;26917;52.328;20.878;2022-11-20T06:49:22;-4.70;99.90
18252;DHT22;26917;52.328;20.878;2022-11-20T06:51:51;-4.60;99.90
18252;DHT22;26917;52.328;20.878;2022-11-20T06:54:19;-4.70;99.90
18252;DHT22;26917;52.328;20.878;2022-11-20T06:56:52;-3.70;99.90
18252;DHT22;26917;52.328;20.878;2022-11-20T06:59:22;-4.50;99.90
18252;DHT22;26917;52.328;20.878;2022-11-20T07:01:50;-4.70;99.90
18252;DHT22;26917;52.328;20.878;2022-11-20T07:04:19;-4.70;99.90
18252;DHT22;26917;52.328;20.878;2022-11-20T07:06:48;-4.50;99.90
18252;DHT22;26917;52.328;20.878;2022-11-20T07:09:17;-4.50;99.90
18252;DHT22;26917;52.328;20.878;2022-11-20T07:11:49;-4.20;99.90
18252;DHT22;26917;52.328;20.878;2022-11-20T07:14:31;-4.60;99.90
18252;DHT22;26917;52.328;20.878;2022-11-20T07:17:00;-4.80;99.90
18252;DHT22;26917;52.328;20.878;2022-11-20T07:19:28;-3.80;99.90
18252;DHT22;26917;52.328;20.878;2022-11-20T07:21:57;-4.60;99.90
18252;DHT22;26917;52.328;20.878;2022-11-20T07:24:25;-4.60;99.90
18252;DHT22;26917;52.328;20.878;2022-11-20T07:26:54;-4.40;99.90
18252;DHT22;26917;52.328;20.878;2022-11-20T07:29:22;-4.10;99.90
18252;DHT22;26917;52.328;20.878;2022-11-20T07:31:52;-4.50;99.90
18252;DHT22;26917;52.328;20.878;2022-11-20T07:34:22;-4.50;99.90
18252;DHT22;26917;52.328;20.878;2022-11-20T07:36:50;-4.50;99.90
18252;DHT22;26917;52.328;20.878;2022-11-20T07:39:19;-4.60;99.90
18252;DHT22;26917;52.328;20.878;2022-11-20T07:41:48;-4.30;99.90
18252;DHT22;26917;52.328;20.878;2022-11-20T07:44:16;-4.30;99.90
18252;DHT22;26917;52.328;20.878;2022-11-20T07:46:44;-4.10;99.90
18252;DHT22;26917;52.328;20.878;2022-11-20T07:49:14;-4.20;99.90
18252;DHT22;26917;52.328;20.878;2022-11-20T07:51:43;-4.20;99.90
18252;DHT22;26917;52.328;20.878;2022-11-20T07:54:16;-4.10;99.90
18252;DHT22;26917;52.328;20.878;2022-11-20T07:56:44;-4.00;99.90
18252;DHT22;26917;52.328;20.878;2022-11-20T07:59:13;-4.00;99.90
18252;DHT22;26917;52.328;20.878;2022-11-20T08:01:42;-3.90;99.90
18252;DHT22;26917;52.328;20.878;2022-11-20T08:04:14;-3.90;99.90
18252;DHT22;26917;52.328;20.878;2022-11-20T08:06:43;-4.00;99.90
18252;DHT22;26917;52.328;20.878;2022-11-20T08:09:11;-4.10;99.90
18252;DHT22;26917;52.328;20.878;2022-11-20T08:11:40;-3.90;99.90
18252;DHT22;26917;52.328;20.878;2022-11-20T08:14:25;-3.90;99.90
18252;DHT22;26917;52.328;20.878;2022-11-20T08:16:54;-3.60;99.90
18252;DHT22;26917;52.328;20.878;2022-11-20T08:19:27;-3.70;99.90
18252;DHT22;26917;52.328;20.878;2022-11-20T08:21:56;-2.60;99.90
18252;DHT22;26917;52.328;20.878;2022-11-20T08:24:24;-3.60;99.90
18252;DHT22;26917;52.328;20.878;2022-11-20T08:26:57;-2.90;99.90
18252;DHT22;26917;52.328;20.878;2022-11-20T08:29:26;-3.70;99.90
18252;DHT22;26917;52.328;20.878;2022-11-20T08:31:55;-3.00;99.90
18252;DHT22;26917;52.328;20.878;2022-11-20T08:34:23;-3.30;99.90
18252;DHT22;26917;52.328;20.878;2022-11-20T08:36:53;-3.50;99.90
18252;DHT22;26917;52.328;20.878;2022-11-20T08:39:22;-3.50;99.90
18252;DHT22;26917;52.328;20.878;2022-11-20T08:41:50;-2.90;99.90
18252;DHT22;26917;52.328;20.878;2022-11-20T08:44:19;-3.20;99.90
18252;DHT22;26917;52.328;20.878;2022-11-20T08:46:47;-3.70;99.90
18252;DHT22;26917;52.328;20.878;2022-11-20T08:49:16;-3.00;99.90
18252;DHT22;26917;52.328;20.878;2022-11-20T08:51:45;-2.90;99.90
18252;DHT22;26917;52.328;20.878;2022-11-20T08:54:16;-2.50;99.90
18252;DHT22;26917;52.328;20.878;2022-11-20T08:56:48;-2.40;99.90
18252;DHT22;26917;52.328;20.878;2022-11-20T08:59:23;-2.60;99.90
18252;DHT22;26917;52.328;20.878;2022-11-20T09:02:14;-2.20;99.90
18252;DHT22;26917;52.328;20.878;2022-11-20T09:04:44;-2.60;99.90
18252;DHT22;26917;52.328;20.878;2022-11-20T09:07:12;-2.30;99.90
18252;DHT22;26917;52.328;20.878;2022-11-20T09:09:42;-2.50;99.90
18252;DHT22;26917;52.328;20.878;2022-11-20T09:12:12;-1.80;99.90
18252;DHT22;26917;52.328;20.878;2022-11-20T09:14:40;-2.10;99.90
18252;DHT22;26917;52.328;20.878;2022-11-20T09:17:10;-1.30;99.90
18252;DHT22;26917;52.328;20.878;2022-11-20T09:19:40;-2.10;99.90
18252;DHT22;26917;52.328;20.878;2022-11-20T09:22:09;-1.00;99.90
18252;DHT22;26917;52.328;20.878;2022-11-20T09:24:37;-2.10;99.90
18252;DHT22;26917;52.328;20.878;2022-11-20T09:27:07;-2.00;99.90
18252;DHT22;26917;52.328;20.878;2022-11-20T09:29:35;-1.60;99.90
18252;DHT22;26917;52.328;20.878;2022-11-20T09:32:07;-1.80;99.90
18252;DHT22;26917;52.328;20.878;2022-11-20T09:34:36;-1.80;99.90
18252;DHT22;26917;52.328;20.878;2022-11-20T09:37:04;-1.60;99.90
18252;DHT22;26917;52.328;20.878;2022-11-20T09:39:33;-1.80;99.90
18252;DHT22;26917;52.328;20.878;2022-11-20T09:42:22;-1.80;99.90
18252;DHT22;26917;52.328;20.878;2022-11-20T09:45:18;-1.60;99.90
18252;DHT22;26917;52.328;20.878;2022-11-20T09:48:03;-1.80;99.90
18252;DHT22;26917;52.328;20.878;2022-11-20T09:50:37;-1.80;99.90
18252;DHT22;26917;52.328;20.878;2022-11-20T09:53:16;-1.70;99.90
18252;DHT22;26917;52.328;20.878;2022-11-20T09:55:48;-1.00;99.90
18252;DHT22;26917;52.328;20.878;2022-11-20T09:58:25;-1.60;99.90
18252;DHT22;26917;52.328;20.878;2022-11-20T10:01:00;-1.50;99.90
18252;DHT22;26917;52.328;20.878;2022-11-20T10:03:39;-1.40;99.90
18252;DHT22;26917;52.328;20.878;2022-11-20T10:06:15;-1.20;99.90
18252;DHT22;26917;52.328;20.878;2022-11-20T10:08:49;-1.10;99.90
18252;DHT22;26917;52.328;20.878;2022-11-20T10:11:32;-1.00;99.90
18252;DHT22;26917;52.328;20.878;2022-11-20T10:14:10;-0.90;99.90
18252;DHT22;26917;52.328;20.878;2022-11-20T10:16:46;-0.50;99.90
18252;DHT22;26917;52.328;20.878;2022-11-20T10:19:27;-0.20;99.90
18252;DHT22;26917;52.328;20.878;2022-11-20T10:22:09;-0.60;99.90
18252;DHT22;26917;52.328;20.878;2022-11-20T10:24:44;-0.50;99.90
18252;DHT22;26917;52.328;20.878;2022-11-20T10:30:20;-0.40;99.90
18252;DHT22;26917;52.328;20.878;2022-11-20T10:32:59;-0.40;99.90
18252;DHT22;26917;52.328;20.878;2022-11-20T10:35:35;-0.30;99.90
18252;DHT22;26917;52.328;20.878;2022-11-20T10:38:08;0.30;99.90
18252;DHT22;26917;52.328;20.878;2022-11-20T10:40:41;-0.40;99.90
18252;DHT22;26917;52.328;20.878;2022-11-20T10:43:14;-0.40;99.90
18252;DHT22;26917;52.328;20.878;2022-11-20T10:45:53;-0.60;99.90
18252;DHT22;26917;52.328;20.878;2022-11-20T10:48:27;-0.60;99.90
18252;DHT22;26917;52.328;20.878;2022-11-20T10:51:07;-0.60;99.90
18252;DHT22;26917;52.328;20.878;2022-11-20T10:53:55;-0.70;99.90
18252;DHT22;26917;52.328;20.878;2022-11-20T10:56:33;-0.40;99.90
18252;DHT22;26917;52.328;20.878;2022-11-20T10:59:14;-0.50;99.90
18252;DHT22;26917;52.328;20.878;2022-11-20T11:01:52;-0.70;99.90
18252;DHT22;26917;52.328;20.878;2022-11-20T11:04:32;-0.40;99.90
18252;DHT22;26917;52.328;20.878;2022-11-20T11:07:07;-0.80;99.90
18252;DHT22;26917;52.328;20.878;2022-11-20T11:09:41;-0.70;99.90
18252;DHT22;26917;52.328;20.878;2022-11-20T11:12:12;-0.70;99.90
18252;DHT22;26917;52.328;20.878;2022-11-20T11:14:46;-0.70;99.90
18252;DHT22;26917;52.328;20.878;2022-11-20T11:17:23;-0.70;99.90
18252;DHT22;26917;52.328;20.878;2022-11-20T11:20:01;-0.60;99.90
18252;DHT22;26917;52.328;20.878;2022-11-20T11:22:32;-0.60;99.90
18252;DHT22;26917;52.328;20.878;2022-11-20T11:25:01;-0.60;99.90
18252;DHT22;26917;52.328;20.878;2022-11-20T11:27:30;-0.60;99.90
18252;DHT22;26917;52.328;20.878;2022-11-20T11:30:11;-0.60;99.90
18252;DHT22;26917;52.328;20.878;2022-11-20T11:32:43;-0.50;99.90
18252;DHT22;26917;52.328;20.878;2022-11-20T11:35:24;-0.30;99.90
18252;DHT22;26917;52.328;20.878;2022-11-20T11:38:00;-0.50;99.90
18252;DHT22;26917;52.328;20.878;2022-11-20T11:40:35;-0.50;99.90
18252;DHT22;26917;52.328;20.878;2022-11-20T11:43:06;-0.40;99.90
18252;DHT22;26917;52.328;20.878;2022-11-20T11:46:15;-0.40;99.90
18252;DHT22;26917;52.328;20.878;2022-11-20T11:48:56;-0.40;99.90
18252;DHT22;26917;52.328;20.878;2022-11-20T11:51:29;-0.40;99.90
18252;DHT22;26917;52.328;20.878;2022-11-20T11:54:00;-0.40;99.90
18252;DHT22;26917;52.328;20.878;2022-11-20T11:56:30;-0.30;99.90
18252;DHT22;26917;52.328;20.878;2022-11-20T11:59:05;-0.40;99.90
18252;DHT22;26917;52.328;20.878;2022-11-20T12:01:41;-0.50;99.90
18252;DHT22;26917;52.328;20.878;2022-11-20T12:04:19;-0.40;99.90
18252;DHT22;26917;52.328;20.878;2022-11-20T12:06:53;0.20;99.90
18252;DHT22;26917;52.328;20.878;2022-11-20T12:09:31;-0.40;99.90
18252;DHT22;26917;52.328;20.878;2022-11-20T12:12:08;-0.40;99.90
18252;DHT22;26917;52.328;20.878;2022-11-20T12:14:42;-0.40;99.90
18252;DHT22;26917;52.328;20.878;2022-11-20T12:17:12;-0.30;99.90
18252;DHT22;26917;52.328;20.878;2022-11-20T12:19:43;-0.30;99.90
18252;DHT22;26917;52.328;20.878;2022-11-20T12:22:24;-0.20;99.90
18252;DHT22;26917;52.328;20.878;2022-11-20T12:24:59;-0.30;99.90
18252;DHT22;26917;52.328;20.878;2022-11-20T12:27:47;-0.30;99.90
18252;DHT22;26917;52.328;20.878;2022-11-20T12:30:23;-0.30;99.90
18252;DHT22;26917;52.328;20.878;2022-11-20T12:33:11;-0.40;99.90
18252;DHT22;26917;52.328;20.878;2022-11-20T12:36:06;-0.30;99.90
18252;DHT22;26917;52.328;20.878;2022-11-20T12:38:57;-0.40;99.90
18252;DHT22;26917;52.328;20.878;2022-11-20T12:41:46;-0.40;99.90
18252;DHT22;26917;52.328;20.878;2022-11-20T12:44:47;-0.40;99.90
18252;DHT22;26917;52.328;20.878;2022-11-20T12:51:12;-0.10;99.90
18252;DHT22;26917;52.328;20.878;2022-11-20T12:53:49;-0.40;99.90
18252;DHT22;26917;52.328;20.878;2022-11-20T12:56:31;-0.40;99.90
18252;DHT22;26917;52.328;20.878;2022-11-20T12:59:38;-0.30;99.90
18252;DHT22;26917;52.328;20.878;2022-11-20T13:05:54;-0.20;99.90
18252;DHT22;26917;52.328;20.878;2022-11-20T13:08:39;-0.20;99.90
18252;DHT22;26917;52.328;20.878;2022-11-20T13:11:16;0.00;99.90
18252;DHT22;26917;52.328;20.878;2022-11-20T13:14:08;-0.10;99.90
18252;DHT22;26917;52.328;20.878;2022-11-20T13:16:46;-0.10;99.90
18252;DHT22;26917;52.328;20.878;2022-11-20T13:19:17;0.00;99.90
18252;DHT22;26917;52.328;20.878;2022-11-20T13:21:47;0.10;99.90
18252;DHT22;26917;52.328;20.878;2022-11-20T13:24:24;0.20;99.90
18252;DHT22;26917;52.328;20.878;2022-11-20T13:30:00;-0.10;99.90
18252;DHT22;26917;52.328;20.878;2022-11-20T13:32:42;0.00;99.90
18252;DHT22;26917;52.328;20.878;2022-11-20T13:35:30;-0.10;99.90
18252;DHT22;26917;52.328;20.878;2022-11-20T13:38:01;-0.10;99.90
18252;DHT22;26917;52.328;20.878;2022-11-20T13:40:34;-0.10;99.90
18252;DHT22;26917;52.328;20.878;2022-11-20T13:43:15;-0.10;99.90
18252;DHT22;26917;52.328;20.878;2022-11-20T13:45:55;-0.40;99.90
18252;DHT22;26917;52.328;20.878;2022-11-20T13:48:43;0.00;99.90
18252;DHT22;26917;52.328;20.878;2022-11-20T13:51:28;-0.20;99.90
18252;DHT22;26917;52.328;20.878;2022-11-20T13:57:44;-0.10;99.90
18252;DHT22;26917;52.328;20.878;2022-11-20T14:00:18;-0.10;99.90
18252;DHT22;26917;52.328;20.878;2022-11-20T14:03:02;-0.10;99.90
18252;DHT22;26917;52.328;20.878;2022-11-20T14:05:38;-0.10;99.90
18252;DHT22;26917;52.328;20.878;2022-11-20T14:08:13;-0.10;99.90
18252;DHT22;26917;52.328;20.878;2022-11-20T14:10:45;-0.20;99.90
18252;DHT22;26917;52.328;20.878;2022-11-20T14:13:31;-0.20;99.90
18252;DHT22;26917;52.328;20.878;2022-11-20T14:16:05;-0.20;99.90
18252;DHT22;26917;52.328;20.878;2022-11-20T14:18:34;-0.20;99.90
18252;DHT22;26917;52.328;20.878;2022-11-20T14:21:03;-0.10;99.90
18252;DHT22;26917;52.328;20.878;2022-11-20T14:23:36;-0.20;99.90
18252;DHT22;26917;52.328;20.878;2022-11-20T14:26:12;-0.30;99.90
18252;DHT22;26917;52.328;20.878;2022-11-20T14:29:03;-0.30;99.90
18252;DHT22;26917;52.328;20.878;2022-11-20T14:31:32;-0.20;99.90
18252;DHT22;26917;52.328;20.878;2022-11-20T14:34:04;-0.10;99.90
18252;DHT22;26917;52.328;20.878;2022-11-20T14:36:33;-0.40;99.90
18252;DHT22;26917;52.328;20.878;2022-11-20T14:39:02;0.00;99.90
18252;DHT22;26917;52.328;20.878;2022-11-20T14:41:30;-0.40;99.90
18252;DHT22;26917;52.328;20.878;2022-11-20T14:44:10;0.00;99.90
18252;DHT22;26917;52.328;20.878;2022-11-20T14:46:39;-0.40;99.90
18252;DHT22;26917;52.328;20.878;2022-11-20T14:49:09;-0.30;99.90
18252;DHT22;26917;52.328;20.878;2022-11-20T14:51:40;-0.50;99.90
18252;DHT22;26917;52.328;20.878;2022-11-20T14:54:16;-0.30;99.90
18252;DHT22;26917;52.328;20.878;2022-11-20T14:56:54;-0.50;99.90
18252;DHT22;26917;52.328;20.878;2022-11-20T14:59:26;-0.40;99.90
18252;DHT22;26917;52.328;20.878;2022-11-20T15:01:57;-0.50;99.90
18252;DHT22;26917;52.328;20.878;2022-11-20T15:04:44;-0.50;99.90
18252;DHT22;26917;52.328;20.878;2022-11-20T15:07:34;-0.50;99.90
18252;DHT22;26917;52.328;20.878;2022-11-20T15:13:02;-0.50;99.90
18252;DHT22;26917;52.328;20.878;2022-11-20T15:15:45;-0.50;99.90
18252;DHT22;26917;52.328;20.878;2022-11-20T15:18:17;-0.50;99.90
18252;DHT22;26917;52.328;20.878;2022-11-20T15:20:47;-0.60;99.90
18252;DHT22;26917;52.328;20.878;2022-11-20T15:23:17;-0.30;99.90
18252;DHT22;26917;52.328;20.878;2022-11-20T15:25:58;-0.60;99.90
18252;DHT22;26917;52.328;20.878;2022-11-20T15:28:34;-0.60;99.90
18252;DHT22;26917;52.328;20.878;2022-11-20T15:31:15;-0.60;99.90
18252;DHT22;26917;52.328;20.878;2022-11-20T15:33:44;-0.60;99.90
18252;DHT22;26917;52.328;20.878;2022-11-20T15:36:12;-0.70;99.90
18252;DHT22;26917;52.328;20.878;2022-11-20T15:38:41;-0.70;99.90
18252;DHT22;26917;52.328;20.878;2022-11-20T15:41:09;-0.20;99.90
18252;DHT22;26917;52.328;20.878;2022-11-20T15:43:38;-0.70;99.90
18252;DHT22;26917;52.328;20.878;2022-11-20T15:46:12;-0.80;99.90
18252;DHT22;26917;52.328;20.878;2022-11-20T15:48:52;-0.80;99.90
18252;DHT22;26917;52.328;20.878;2022-11-20T15:51:27;-0.90;99.90
18252;DHT22;26917;52.328;20.878;2022-11-20T15:53:58;-0.90;99.90
18252;DHT22;26917;52.328;20.878;2022-11-20T15:56:26;-1.00;99.90
18252;DHT22;26917;52.328;20.878;2022-11-20T15:59:02;-1.00;99.90
18252;DHT22;26917;52.328;20.878;2022-11-20T16:01:34;-1.20;99.90
18252;DHT22;26917;52.328;20.878;2022-11-20T16:04:07;-1.20;99.90
18252;DHT22;26917;52.328;20.878;2022-11-20T16:06:37;-1.30;99.90
18252;DHT22;26917;52.328;20.878;2022-11-20T16:09:05;-1.40;99.90
18252;DHT22;26917;52.328;20.878;2022-11-20T16:11:34;-1.40;99.90